sensor_id;sensor_type;location;lat;lon;timestamp;P1;durP1;ratioP1;P2;durP2;ratioP2
56114;SDS011;41988;53.020;6.576;2023-04-15T00:02:33;7.93;;;4.03;;
56114;SDS011;41988;53.020;6.576;2023-04-15T00:05:18;8.63;;;3.92;;
56114;SDS011;41988;53.020;6.576;2023-04-15T00:08:03;13.30;;;4.22;;
56114;SDS011;41988;53.020;6.576;2023-04-15T00:10:49;7.40;;;3.95;;
56114;SDS011;41988;53.020;6.576;2023-04-15T00:13:33;11.27;;;4.38;;
56114;SDS011;41988;53.020;6.576;2023-04-15T00:16:18;12.10;;;5.20;;
56114;SDS011;41988;53.020;6.576;2023-04-15T00:19:03;12.32;;;4.28;;
56114;SDS011;41988;53.020;6.576;2023-04-15T00:21:47;13.18;;;4.90;;
56114;SDS011;41988;53.020;6.576;2023-04-15T00:24:32;9.50;;;4.45;;
56114;SDS011;41988;53.020;6.576;2023-04-15T00:27:17;11.38;;;4.65;;
56114;SDS011;41988;53.020;6.576;2023-04-15T00:30:02;15.95;;;4.93;;
56114;SDS011;41988;53.020;6.576;2023-04-15T00:32:46;11.77;;;6.60;;
56114;SDS011;41988;53.020;6.576;2023-04-15T00:35:32;11.13;;;4.75;;
56114;SDS011;41988;53.020;6.576;2023-04-15T00:38:16;9.90;;;4.85;;
56114;SDS011;41988;53.020;6.576;2023-04-15T00:41:01;14.20;;;4.85;;
56114;SDS011;41988;53.020;6.576;2023-04-15T00:43:46;12.05;;;5.45;;
56114;SDS011;41988;53.020;6.576;2023-04-15T00:46:32;12.70;;;5.20;;
56114;SDS011;41988;53.020;6.576;2023-04-15T00:49:17;8.60;;;5.20;;
56114;SDS011;41988;53.020;6.576;2023-04-15T00:52:01;11.70;;;5.32;;
56114;SDS011;41988;53.020;6.576;2023-04-15T00:54:46;8.55;;;4.65;;
56114;SDS011;41988;53.020;6.576;2023-04-15T00:57:31;12.60;;;5.40;;
56114;SDS011;41988;53.020;6.576;2023-04-15T01:00:16;15.05;;;5.85;;
56114;SDS011;41988;53.020;6.576;2023-04-15T01:03:02;9.95;;;5.47;;
56114;SDS011;41988;53.020;6.576;2023-04-15T01:05:46;11.55;;;6.05;;
56114;SDS011;41988;53.020;6.576;2023-04-15T01:08:32;11.82;;;5.57;;
56114;SDS011;41988;53.020;6.576;2023-04-15T01:11:16;10.90;;;5.70;;
56114;SDS011;41988;53.020;6.576;2023-04-15T01:14:01;12.35;;;5.95;;
56114;SDS011;41988;53.020;6.576;2023-04-15T01:16:46;16.90;;;6.18;;
56114;SDS011;41988;53.020;6.576;2023-04-15T01:19:30;12.25;;;6.68;;
56114;SDS011;41988;53.020;6.576;2023-04-15T01:22:15;10.98;;;6.85;;
56114;SDS011;41988;53.020;6.576;2023-04-15T01:25:02;11.80;;;6.20;;
56114;SDS011;41988;53.020;6.576;2023-04-15T01:27:48;10.60;;;6.05;;
56114;SDS011;41988;53.020;6.576;2023-04-15T01:30:34;16.73;;;6.40;;
56114;SDS011;41988;53.020;6.576;2023-04-15T01:33:18;14.48;;;6.60;;
56114;SDS011;41988;53.020;6.576;2023-04-15T01:36:03;13.63;;;6.50;;
56114;SDS011;41988;53.020;6.576;2023-04-15T01:38:48;11.95;;;6.20;;
56114;SDS011;41988;53.020;6.576;2023-04-15T01:41:33;13.07;;;7.18;;
56114;SDS011;41988;53.020;6.576;2023-04-15T01:44:18;13.18;;;6.38;;
56114;SDS011;41988;53.020;6.576;2023-04-15T01:47:02;15.25;;;7.00;;
56114;SDS011;41988;53.020;6.576;2023-04-15T01:49:48;17.48;;;7.97;;
56114;SDS011;41988;53.020;6.576;2023-04-15T01:52:33;12.82;;;6.50;;
56114;SDS011;41988;53.020;6.576;2023-04-15T01:55:17;12.27;;;7.15;;
56114;SDS011;41988;53.020;6.576;2023-04-15T01:58:02;12.65;;;6.55;;
56114;SDS011;41988;53.020;6.576;2023-04-15T02:00:47;12.13;;;6.75;;
56114;SDS011;41988;53.020;6.576;2023-04-15T02:03:32;13.40;;;6.07;;
56114;SDS011;41988;53.020;6.576;2023-04-15T02:06:17;12.82;;;6.50;;
56114;SDS011;41988;53.020;6.576;2023-04-15T02:09:01;14.68;;;7.47;;
56114;SDS011;41988;53.020;6.576;2023-04-15T02:11:49;13.85;;;7.03;;
56114;SDS011;41988;53.020;6.576;2023-04-15T02:14:34;16.38;;;6.93;;
56114;SDS011;41988;53.020;6.576;2023-04-15T02:17:18;12.88;;;6.55;;
56114;SDS011;41988;53.020;6.576;2023-04-15T02:20:03;14.45;;;7.20;;
56114;SDS011;41988;53.020;6.576;2023-04-15T02:22:51;13.40;;;6.80;;
56114;SDS011;41988;53.020;6.576;2023-04-15T02:25:36;13.80;;;7.10;;
56114;SDS011;41988;53.020;6.576;2023-04-15T02:28:24;16.40;;;8.95;;
56114;SDS011;41988;53.020;6.576;2023-04-15T02:31:10;13.13;;;7.10;;
56114;SDS011;41988;53.020;6.576;2023-04-15T02:33:54;13.55;;;7.47;;
56114;SDS011;41988;53.020;6.576;2023-04-15T02:36:38;11.80;;;7.18;;
56114;SDS011;41988;53.020;6.576;2023-04-15T02:39:23;12.88;;;7.75;;
56114;SDS011;41988;53.020;6.576;2023-04-15T02:42:07;12.93;;;7.95;;
56114;SDS011;41988;53.020;6.576;2023-04-15T02:44:52;18.38;;;8.05;;
56114;SDS011;41988;53.020;6.576;2023-04-15T02:47:37;12.65;;;7.15;;
56114;SDS011;41988;53.020;6.576;2023-04-15T02:50:25;15.13;;;7.68;;
56114;SDS011;41988;53.020;6.576;2023-04-15T02:53:10;13.55;;;8.00;;
56114;SDS011;41988;53.020;6.576;2023-04-15T02:55:55;17.45;;;7.45;;
56114;SDS011;41988;53.020;6.576;2023-04-15T02:58:40;13.45;;;8.48;;
56114;SDS011;41988;53.020;6.576;2023-04-15T03:01:25;18.17;;;7.75;;
56114;SDS011;41988;53.020;6.576;2023-04-15T03:04:09;13.85;;;8.90;;
56114;SDS011;41988;53.020;6.576;2023-04-15T03:06:54;17.02;;;8.80;;
56114;SDS011;41988;53.020;6.576;2023-04-15T03:09:39;18.50;;;9.00;;
56114;SDS011;41988;53.020;6.576;2023-04-15T03:12:24;15.93;;;8.65;;
56114;SDS011;41988;53.020;6.576;2023-04-15T03:15:08;20.13;;;10.45;;
56114;SDS011;41988;53.020;6.576;2023-04-15T03:17:54;16.52;;;8.40;;
56114;SDS011;41988;53.020;6.576;2023-04-15T03:20:38;16.63;;;9.00;;
56114;SDS011;41988;53.020;6.576;2023-04-15T03:23:23;17.08;;;9.00;;
56114;SDS011;41988;53.020;6.576;2023-04-15T03:26:08;16.35;;;9.60;;
56114;SDS011;41988;53.020;6.576;2023-04-15T03:28:53;15.68;;;8.95;;
56114;SDS011;41988;53.020;6.576;2023-04-15T03:31:38;19.73;;;9.15;;
56114;SDS011;41988;53.020;6.576;2023-04-15T03:34:22;19.42;;;10.10;;
56114;SDS011;41988;53.020;6.576;2023-04-15T03:37:07;19.35;;;8.95;;
56114;SDS011;41988;53.020;6.576;2023-04-15T03:39:51;14.90;;;8.65;;
56114;SDS011;41988;53.020;6.576;2023-04-15T03:42:36;18.52;;;9.63;;
56114;SDS011;41988;53.020;6.576;2023-04-15T03:45:20;20.27;;;10.15;;
56114;SDS011;41988;53.020;6.576;2023-04-15T03:48:05;14.15;;;8.98;;
56114;SDS011;41988;53.020;6.576;2023-04-15T03:50:49;16.67;;;9.90;;
56114;SDS011;41988;53.020;6.576;2023-04-15T03:53:35;16.80;;;8.93;;
56114;SDS011;41988;53.020;6.576;2023-04-15T03:56:19;16.48;;;9.05;;
56114;SDS011;41988;53.020;6.576;2023-04-15T03:59:04;15.60;;;8.30;;
56114;SDS011;41988;53.020;6.576;2023-04-15T04:01:48;21.05;;;9.57;;
56114;SDS011;41988;53.020;6.576;2023-04-15T04:04:33;15.27;;;9.10;;
56114;SDS011;41988;53.020;6.576;2023-04-15T04:07:18;17.10;;;9.65;;
56114;SDS011;41988;53.020;6.576;2023-04-15T04:10:02;18.13;;;10.20;;
56114;SDS011;41988;53.020;6.576;2023-04-15T04:12:48;19.08;;;11.13;;
56114;SDS011;41988;53.020;6.576;2023-04-15T04:15:32;17.25;;;9.63;;
56114;SDS011;41988;53.020;6.576;2023-04-15T04:18:17;18.67;;;9.77;;
56114;SDS011;41988;53.020;6.576;2023-04-15T04:21:01;19.00;;;9.68;;
56114;SDS011;41988;53.020;6.576;2023-04-15T04:23:46;16.65;;;9.73;;
56114;SDS011;41988;53.020;6.576;2023-04-15T04:26:30;19.30;;;9.88;;
56114;SDS011;41988;53.020;6.576;2023-04-15T04:29:15;18.30;;;9.95;;
56114;SDS011;41988;53.020;6.576;2023-04-15T04:31:59;17.05;;;10.10;;
56114;SDS011;41988;53.020;6.576;2023-04-15T04:34:44;15.10;;;9.55;;
56114;SDS011;41988;53.020;6.576;2023-04-15T04:37:29;17.98;;;10.43;;
56114;SDS011;41988;53.020;6.576;2023-04-15T04:40:14;18.77;;;10.02;;
56114;SDS011;41988;53.020;6.576;2023-04-15T04:42:59;23.02;;;11.10;;
56114;SDS011;41988;53.020;6.576;2023-04-15T04:45:43;19.35;;;12.00;;
56114;SDS011;41988;53.020;6.576;2023-04-15T04:48:28;22.80;;;12.27;;
56114;SDS011;41988;53.020;6.576;2023-04-15T04:51:12;19.83;;;11.45;;
56114;SDS011;41988;53.020;6.576;2023-04-15T04:53:57;22.92;;;12.43;;
56114;SDS011;41988;53.020;6.576;2023-04-15T04:56:41;27.20;;;14.50;;
56114;SDS011;41988;53.020;6.576;2023-04-15T04:59:26;25.13;;;13.23;;
56114;SDS011;41988;53.020;6.576;2023-04-15T05:02:10;26.67;;;13.32;;
56114;SDS011;41988;53.020;6.576;2023-04-15T05:04:55;25.55;;;11.77;;
56114;SDS011;41988;53.020;6.576;2023-04-15T05:07:39;22.85;;;12.60;;
56114;SDS011;41988;53.020;6.576;2023-04-15T05:10:24;24.42;;;13.23;;
56114;SDS011;41988;53.020;6.576;2023-04-15T05:13:09;23.65;;;13.30;;
56114;SDS011;41988;53.020;6.576;2023-04-15T05:15:54;25.70;;;13.05;;
56114;SDS011;41988;53.020;6.576;2023-04-15T05:18:39;25.02;;;13.35;;
56114;SDS011;41988;53.020;6.576;2023-04-15T05:21:26;22.88;;;13.52;;
56114;SDS011;41988;53.020;6.576;2023-04-15T05:24:11;24.88;;;13.73;;
56114;SDS011;41988;53.020;6.576;2023-04-15T05:26:56;32.85;;;15.65;;
56114;SDS011;41988;53.020;6.576;2023-04-15T05:29:40;32.78;;;14.93;;
56114;SDS011;41988;53.020;6.576;2023-04-15T05:32:25;30.13;;;16.00;;
56114;SDS011;41988;53.020;6.576;2023-04-15T05:35:10;26.80;;;15.02;;
56114;SDS011;41988;53.020;6.576;2023-04-15T05:37:54;31.95;;;15.50;;
56114;SDS011;41988;53.020;6.576;2023-04-15T05:40:39;26.95;;;14.60;;
56114;SDS011;41988;53.020;6.576;2023-04-15T05:43:24;26.55;;;13.77;;
56114;SDS011;41988;53.020;6.576;2023-04-15T05:46:08;31.42;;;14.50;;
56114;SDS011;41988;53.020;6.576;2023-04-15T05:48:53;29.30;;;16.15;;
56114;SDS011;41988;53.020;6.576;2023-04-15T05:51:37;31.75;;;16.27;;
56114;SDS011;41988;53.020;6.576;2023-04-15T05:54:22;29.80;;;14.77;;
56114;SDS011;41988;53.020;6.576;2023-04-15T05:57:06;31.05;;;15.57;;
56114;SDS011;41988;53.020;6.576;2023-04-15T05:59:51;33.30;;;15.73;;
56114;SDS011;41988;53.020;6.576;2023-04-15T06:02:36;25.50;;;14.95;;
56114;SDS011;41988;53.020;6.576;2023-04-15T06:05:20;29.50;;;16.35;;
56114;SDS011;41988;53.020;6.576;2023-04-15T06:08:05;26.55;;;15.65;;
56114;SDS011;41988;53.020;6.576;2023-04-15T06:10:50;26.45;;;16.05;;
56114;SDS011;41988;53.020;6.576;2023-04-15T06:13:35;30.58;;;16.33;;
56114;SDS011;41988;53.020;6.576;2023-04-15T06:16:19;30.27;;;16.40;;
56114;SDS011;41988;53.020;6.576;2023-04-15T06:19:04;27.08;;;14.82;;
56114;SDS011;41988;53.020;6.576;2023-04-15T06:21:49;29.00;;;15.20;;
56114;SDS011;41988;53.020;6.576;2023-04-15T06:24:34;25.30;;;13.90;;
56114;SDS011;41988;53.020;6.576;2023-04-15T06:27:19;25.33;;;14.75;;
56114;SDS011;41988;53.020;6.576;2023-04-15T06:30:06;23.98;;;13.15;;
56114;SDS011;41988;53.020;6.576;2023-04-15T06:32:51;22.55;;;12.00;;
56114;SDS011;41988;53.020;6.576;2023-04-15T06:35:35;22.95;;;13.23;;
56114;SDS011;41988;53.020;6.576;2023-04-15T06:38:20;22.13;;;13.50;;
56114;SDS011;41988;53.020;6.576;2023-04-15T06:41:05;21.17;;;12.18;;
56114;SDS011;41988;53.020;6.576;2023-04-15T06:43:49;18.15;;;11.82;;
56114;SDS011;41988;53.020;6.576;2023-04-15T06:46:34;23.17;;;12.55;;
56114;SDS011;41988;53.020;6.576;2023-04-15T06:49:18;20.90;;;12.27;;
56114;SDS011;41988;53.020;6.576;2023-04-15T06:52:03;19.17;;;11.07;;
56114;SDS011;41988;53.020;6.576;2023-04-15T06:54:47;19.40;;;11.85;;
56114;SDS011;41988;53.020;6.576;2023-04-15T06:57:32;17.83;;;11.30;;
56114;SDS011;41988;53.020;6.576;2023-04-15T07:00:16;17.33;;;11.23;;
56114;SDS011;41988;53.020;6.576;2023-04-15T07:03:01;17.60;;;10.90;;
56114;SDS011;41988;53.020;6.576;2023-04-15T07:05:46;14.93;;;9.48;;
56114;SDS011;41988;53.020;6.576;2023-04-15T07:08:31;17.48;;;10.02;;
56114;SDS011;41988;53.020;6.576;2023-04-15T07:11:16;15.55;;;9.35;;
56114;SDS011;41988;53.020;6.576;2023-04-15T07:14:01;15.50;;;8.80;;
56114;SDS011;41988;53.020;6.576;2023-04-15T07:16:45;15.25;;;9.93;;
56114;SDS011;41988;53.020;6.576;2023-04-15T07:19:30;16.17;;;9.68;;
56114;SDS011;41988;53.020;6.576;2023-04-15T07:22:15;16.58;;;9.13;;
56114;SDS011;41988;53.020;6.576;2023-04-15T07:24:59;16.05;;;8.52;;
56114;SDS011;41988;53.020;6.576;2023-04-15T07:27:44;14.30;;;8.43;;
56114;SDS011;41988;53.020;6.576;2023-04-15T07:30:29;12.02;;;8.32;;
56114;SDS011;41988;53.020;6.576;2023-04-15T07:33:13;10.88;;;7.45;;
56114;SDS011;41988;53.020;6.576;2023-04-15T07:35:58;12.23;;;7.35;;
56114;SDS011;41988;53.020;6.576;2023-04-15T07:38:42;9.98;;;6.70;;
56114;SDS011;41988;53.020;6.576;2023-04-15T07:41:27;11.80;;;6.72;;
56114;SDS011;41988;53.020;6.576;2023-04-15T07:44:12;12.57;;;6.97;;
56114;SDS011;41988;53.020;6.576;2023-04-15T07:46:57;12.13;;;7.15;;
56114;SDS011;41988;53.020;6.576;2023-04-15T07:49:41;12.63;;;6.40;;
56114;SDS011;41988;53.020;6.576;2023-04-15T07:52:27;11.30;;;6.10;;
56114;SDS011;41988;53.020;6.576;2023-04-15T07:55:11;12.13;;;6.38;;
56114;SDS011;41988;53.020;6.576;2023-04-15T07:57:56;13.48;;;6.43;;
56114;SDS011;41988;53.020;6.576;2023-04-15T08:00:41;9.82;;;5.90;;
56114;SDS011;41988;53.020;6.576;2023-04-15T08:03:25;9.73;;;5.30;;
56114;SDS011;41988;53.020;6.576;2023-04-15T08:06:10;7.15;;;4.85;;
56114;SDS011;41988;53.020;6.576;2023-04-15T08:08:54;8.00;;;5.00;;
56114;SDS011;41988;53.020;6.576;2023-04-15T08:11:39;9.05;;;5.10;;
56114;SDS011;41988;53.020;6.576;2023-04-15T08:14:24;7.88;;;5.03;;
56114;SDS011;41988;53.020;6.576;2023-04-15T08:17:09;8.35;;;4.70;;
56114;SDS011;41988;53.020;6.576;2023-04-15T08:19:54;7.50;;;4.55;;
56114;SDS011;41988;53.020;6.576;2023-04-15T08:22:39;9.93;;;5.32;;
56114;SDS011;41988;53.020;6.576;2023-04-15T08:25:24;7.35;;;4.88;;
56114;SDS011;41988;53.020;6.576;2023-04-15T08:28:09;9.05;;;5.18;;
56114;SDS011;41988;53.020;6.576;2023-04-15T08:30:54;8.45;;;4.80;;
56114;SDS011;41988;53.020;6.576;2023-04-15T08:33:39;8.95;;;5.30;;
56114;SDS011;41988;53.020;6.576;2023-04-15T08:36:23;8.82;;;5.03;;
56114;SDS011;41988;53.020;6.576;2023-04-15T08:39:09;10.30;;;6.30;;
56114;SDS011;41988;53.020;6.576;2023-04-15T08:41:55;12.63;;;5.60;;
56114;SDS011;41988;53.020;6.576;2023-04-15T08:44:42;10.57;;;5.45;;
56114;SDS011;41988;53.020;6.576;2023-04-15T08:47:28;15.13;;;6.03;;
56114;SDS011;41988;53.020;6.576;2023-04-15T08:50:14;8.75;;;4.88;;
56114;SDS011;41988;53.020;6.576;2023-04-15T08:52:59;7.25;;;4.65;;
56114;SDS011;41988;53.020;6.576;2023-04-15T08:55:45;10.73;;;4.22;;
56114;SDS011;41988;53.020;6.576;2023-04-15T08:58:30;6.85;;;4.00;;
56114;SDS011;41988;53.020;6.576;2023-04-15T09:01:18;7.20;;;4.43;;
56114;SDS011;41988;53.020;6.576;2023-04-15T09:04:04;6.82;;;4.25;;
56114;SDS011;41988;53.020;6.576;2023-04-15T09:06:50;7.75;;;3.60;;
56114;SDS011;41988;53.020;6.576;2023-04-15T09:09:35;5.65;;;3.30;;
56114;SDS011;41988;53.020;6.576;2023-04-15T09:12:22;9.25;;;3.55;;
56114;SDS011;41988;53.020;6.576;2023-04-15T09:15:07;7.72;;;3.30;;
56114;SDS011;41988;53.020;6.576;2023-04-15T09:17:55;7.70;;;3.45;;
56114;SDS011;41988;53.020;6.576;2023-04-15T09:20:40;5.78;;;2.97;;
56114;SDS011;41988;53.020;6.576;2023-04-15T09:23:25;5.07;;;2.58;;
56114;SDS011;41988;53.020;6.576;2023-04-15T09:26:11;8.00;;;2.65;;
56114;SDS011;41988;53.020;6.576;2023-04-15T09:29:01;4.38;;;2.70;;
56114;SDS011;41988;53.020;6.576;2023-04-15T09:31:47;4.05;;;2.28;;
56114;SDS011;41988;53.020;6.576;2023-04-15T09:34:34;6.72;;;2.80;;
56114;SDS011;41988;53.020;6.576;2023-04-15T09:37:33;3.47;;;2.05;;
56114;SDS011;41988;53.020;6.576;2023-04-15T09:40:37;4.65;;;2.05;;
56114;SDS011;41988;53.020;6.576;2023-04-15T09:43:26;9.25;;;2.45;;
56114;SDS011;41988;53.020;6.576;2023-04-15T09:46:39;7.68;;;2.13;;
56114;SDS011;41988;53.020;6.576;2023-04-15T09:49:24;9.40;;;2.70;;
56114;SDS011;41988;53.020;6.576;2023-04-15T09:52:12;5.40;;;1.98;;
56114;SDS011;41988;53.020;6.576;2023-04-15T09:54:58;3.63;;;2.47;;
56114;SDS011;41988;53.020;6.576;2023-04-15T09:57:43;5.03;;;2.88;;
56114;SDS011;41988;53.020;6.576;2023-04-15T10:00:29;4.25;;;1.90;;
56114;SDS011;41988;53.020;6.576;2023-04-15T10:03:17;4.00;;;1.70;;
56114;SDS011;41988;53.020;6.576;2023-04-15T10:06:02;5.18;;;1.85;;
56114;SDS011;41988;53.020;6.576;2023-04-15T10:08:48;3.47;;;1.60;;
56114;SDS011;41988;53.020;6.576;2023-04-15T10:11:32;4.53;;;1.60;;
56114;SDS011;41988;53.020;6.576;2023-04-15T10:14:18;5.40;;;1.77;;
56114;SDS011;41988;53.020;6.576;2023-04-15T10:17:03;3.17;;;1.63;;
56114;SDS011;41988;53.020;6.576;2023-04-15T10:19:48;5.20;;;2.20;;
56114;SDS011;41988;53.020;6.576;2023-04-15T10:22:32;3.10;;;1.60;;
56114;SDS011;41988;53.020;6.576;2023-04-15T10:25:18;2.97;;;1.80;;
56114;SDS011;41988;53.020;6.576;2023-04-15T10:28:05;4.95;;;2.30;;
56114;SDS011;41988;53.020;6.576;2023-04-15T10:30:51;4.38;;;1.65;;
56114;SDS011;41988;53.020;6.576;2023-04-15T10:33:36;4.45;;;1.80;;
56114;SDS011;41988;53.020;6.576;2023-04-15T10:36:21;3.53;;;1.65;;
56114;SDS011;41988;53.020;6.576;2023-04-15T10:39:52;3.17;;;1.95;;
56114;SDS011;41988;53.020;6.576;2023-04-15T10:42:13;4.15;;;1.60;;
56114;SDS011;41988;53.020;6.576;2023-04-15T10:45:01;2.63;;;1.48;;
56114;SDS011;41988;53.020;6.576;2023-04-15T10:47:50;3.83;;;1.77;;
56114;SDS011;41988;53.020;6.576;2023-04-15T10:50:37;3.78;;;1.40;;
56114;SDS011;41988;53.020;6.576;2023-04-15T10:53:26;6.97;;;2.03;;
56114;SDS011;41988;53.020;6.576;2023-04-15T10:56:12;5.45;;;2.15;;
56114;SDS011;41988;53.020;6.576;2023-04-15T10:58:59;5.25;;;2.47;;
56114;SDS011;41988;53.020;6.576;2023-04-15T11:01:52;3.72;;;1.80;;
56114;SDS011;41988;53.020;6.576;2023-04-15T11:04:56;7.05;;;1.65;;
56114;SDS011;41988;53.020;6.576;2023-04-15T11:07:48;4.10;;;1.70;;
56114;SDS011;41988;53.020;6.576;2023-04-15T11:13:20;8.23;;;3.30;;
56114;SDS011;41988;53.020;6.576;2023-04-15T11:16:05;5.53;;;1.65;;
56114;SDS011;41988;53.020;6.576;2023-04-15T11:18:53;9.25;;;3.58;;
56114;SDS011;41988;53.020;6.576;2023-04-15T11:21:38;8.18;;;2.38;;
56114;SDS011;41988;53.020;6.576;2023-04-15T11:24:25;7.85;;;1.92;;
56114;SDS011;41988;53.020;6.576;2023-04-15T11:27:18;5.85;;;2.15;;
56114;SDS011;41988;53.020;6.576;2023-04-15T11:30:16;9.80;;;2.77;;
56114;SDS011;41988;53.020;6.576;2023-04-15T11:33:02;5.80;;;2.70;;
56114;SDS011;41988;53.020;6.576;2023-04-15T11:35:47;5.25;;;2.33;;
56114;SDS011;41988;53.020;6.576;2023-04-15T11:38:32;5.75;;;2.30;;
56114;SDS011;41988;53.020;6.576;2023-04-15T11:41:20;6.97;;;2.67;;
56114;SDS011;41988;53.020;6.576;2023-04-15T11:44:14;8.85;;;3.28;;
56114;SDS011;41988;53.020;6.576;2023-04-15T11:49:44;6.15;;;1.90;;
56114;SDS011;41988;53.020;6.576;2023-04-15T11:52:28;6.60;;;2.05;;
56114;SDS011;41988;53.020;6.576;2023-04-15T11:55:13;6.13;;;2.03;;
56114;SDS011;41988;53.020;6.576;2023-04-15T12:01:42;7.47;;;2.15;;
56114;SDS011;41988;53.020;6.576;2023-04-15T12:04:31;6.40;;;2.17;;
56114;SDS011;41988;53.020;6.576;2023-04-15T12:07:16;8.40;;;2.22;;
56114;SDS011;41988;53.020;6.576;2023-04-15T12:10:01;6.28;;;2.15;;
56114;SDS011;41988;53.020;6.576;2023-04-15T12:12:50;6.40;;;1.85;;
56114;SDS011;41988;53.020;6.576;2023-04-15T12:15:38;10.77;;;2.47;;
56114;SDS011;41988;53.020;6.576;2023-04-15T12:18:23;8.73;;;2.15;;
56114;SDS011;41988;53.020;6.576;2023-04-15T12:21:09;5.97;;;2.30;;
56114;SDS011;41988;53.020;6.576;2023-04-15T12:23:55;5.57;;;1.92;;
56114;SDS011;41988;53.020;6.576;2023-04-15T12:26:47;5.78;;;1.83;;
56114;SDS011;41988;53.020;6.576;2023-04-15T12:29:34;10.27;;;2.20;;
56114;SDS011;41988;53.020;6.576;2023-04-15T12:32:19;6.15;;;1.98;;
56114;SDS011;41988;53.020;6.576;2023-04-15T12:35:05;6.75;;;1.90;;
56114;SDS011;41988;53.020;6.576;2023-04-15T12:37:49;5.85;;;1.95;;
56114;SDS011;41988;53.020;6.576;2023-04-15T12:40:35;7.20;;;1.63;;
56114;SDS011;41988;53.020;6.576;2023-04-15T12:43:20;5.15;;;1.73;;
56114;SDS011;41988;53.020;6.576;2023-04-15T12:46:04;4.00;;;1.83;;
56114;SDS011;41988;53.020;6.576;2023-04-15T12:48:51;8.27;;;2.22;;
56114;SDS011;41988;53.020;6.576;2023-04-15T12:51:36;10.27;;;2.13;;
56114;SDS011;41988;53.020;6.576;2023-04-15T12:54:21;7.30;;;1.70;;
56114;SDS011;41988;53.020;6.576;2023-04-15T12:57:09;8.07;;;1.77;;
56114;SDS011;41988;53.020;6.576;2023-04-15T12:59:53;10.13;;;2.40;;
56114;SDS011;41988;53.020;6.576;2023-04-15T13:02:38;6.63;;;2.03;;
56114;SDS011;41988;53.020;6.576;2023-04-15T13:05:22;9.75;;;2.13;;
56114;SDS011;41988;53.020;6.576;2023-04-15T13:08:07;9.80;;;1.90;;
56114;SDS011;41988;53.020;6.576;2023-04-15T13:10:51;7.15;;;2.05;;
56114;SDS011;41988;53.020;6.576;2023-04-15T13:13:36;7.90;;;1.88;;
56114;SDS011;41988;53.020;6.576;2023-04-15T13:16:21;5.72;;;1.80;;
56114;SDS011;41988;53.020;6.576;2023-04-15T13:19:06;8.38;;;2.25;;
56114;SDS011;41988;53.020;6.576;2023-04-15T13:21:50;7.47;;;1.90;;
56114;SDS011;41988;53.020;6.576;2023-04-15T13:24:35;8.25;;;2.05;;
56114;SDS011;41988;53.020;6.576;2023-04-15T13:27:19;6.32;;;1.98;;
56114;SDS011;41988;53.020;6.576;2023-04-15T13:30:04;9.43;;;1.60;;
56114;SDS011;41988;53.020;6.576;2023-04-15T13:32:50;6.25;;;1.98;;
56114;SDS011;41988;53.020;6.576;2023-04-15T13:35:36;6.18;;;1.58;;
56114;SDS011;41988;53.020;6.576;2023-04-15T13:38:20;7.05;;;1.88;;
56114;SDS011;41988;53.020;6.576;2023-04-15T13:41:05;9.60;;;2.10;;
56114;SDS011;41988;53.020;6.576;2023-04-15T13:43:50;6.28;;;1.65;;
56114;SDS011;41988;53.020;6.576;2023-04-15T13:46:34;5.88;;;1.48;;
56114;SDS011;41988;53.020;6.576;2023-04-15T13:49:20;9.35;;;1.73;;
56114;SDS011;41988;53.020;6.576;2023-04-15T13:52:05;8.07;;;1.77;;
56114;SDS011;41988;53.020;6.576;2023-04-15T13:54:50;9.75;;;1.92;;
56114;SDS011;41988;53.020;6.576;2023-04-15T13:57:34;7.43;;;1.90;;
56114;SDS011;41988;53.020;6.576;2023-04-15T14:00:19;6.47;;;1.70;;
56114;SDS011;41988;53.020;6.576;2023-04-15T14:03:04;7.35;;;2.30;;
56114;SDS011;41988;53.020;6.576;2023-04-15T14:05:48;10.88;;;2.50;;
56114;SDS011;41988;53.020;6.576;2023-04-15T14:08:38;11.13;;;2.35;;
56114;SDS011;41988;53.020;6.576;2023-04-15T14:11:23;8.65;;;1.85;;
56114;SDS011;41988;53.020;6.576;2023-04-15T14:14:08;7.05;;;1.80;;
56114;SDS011;41988;53.020;6.576;2023-04-15T14:16:53;3.65;;;1.50;;
56114;SDS011;41988;53.020;6.576;2023-04-15T14:19:39;7.57;;;1.75;;
56114;SDS011;41988;53.020;6.576;2023-04-15T14:22:23;5.88;;;1.95;;
56114;SDS011;41988;53.020;6.576;2023-04-15T14:25:08;7.97;;;1.70;;
56114;SDS011;41988;53.020;6.576;2023-04-15T14:27:53;6.38;;;2.17;;
56114;SDS011;41988;53.020;6.576;2023-04-15T14:30:37;7.68;;;1.50;;
56114;SDS011;41988;53.020;6.576;2023-04-15T14:33:22;8.57;;;2.08;;
56114;SDS011;41988;53.020;6.576;2023-04-15T14:36:07;5.90;;;1.80;;
56114;SDS011;41988;53.020;6.576;2023-04-15T14:38:52;7.13;;;1.90;;
56114;SDS011;41988;53.020;6.576;2023-04-15T14:41:36;8.60;;;2.15;;
56114;SDS011;41988;53.020;6.576;2023-04-15T14:44:21;9.25;;;2.05;;
56114;SDS011;41988;53.020;6.576;2023-04-15T14:47:06;7.60;;;2.05;;
56114;SDS011;41988;53.020;6.576;2023-04-15T14:49:51;13.73;;;2.60;;
56114;SDS011;41988;53.020;6.576;2023-04-15T14:52:35;9.85;;;3.15;;
56114;SDS011;41988;53.020;6.576;2023-04-15T14:55:23;11.60;;;3.63;;
56114;SDS011;41988;53.020;6.576;2023-04-15T14:58:08;8.20;;;2.25;;
56114;SDS011;41988;53.020;6.576;2023-04-15T15:00:53;14.35;;;2.95;;
56114;SDS011;41988;53.020;6.576;2023-04-15T15:03:38;9.30;;;2.65;;
56114;SDS011;41988;53.020;6.576;2023-04-15T15:06:22;9.98;;;3.65;;
56114;SDS011;41988;53.020;6.576;2023-04-15T15:09:07;12.32;;;3.33;;
56114;SDS011;41988;53.020;6.576;2023-04-15T15:11:51;6.90;;;2.40;;
56114;SDS011;41988;53.020;6.576;2023-04-15T15:14:36;9.65;;;2.65;;
56114;SDS011;41988;53.020;6.576;2023-04-15T15:17:21;11.73;;;2.90;;
56114;SDS011;41988;53.020;6.576;2023-04-15T15:20:05;12.38;;;2.80;;
56114;SDS011;41988;53.020;6.576;2023-04-15T15:22:50;12.90;;;2.58;;
56114;SDS011;41988;53.020;6.576;2023-04-15T15:25:36;12.77;;;2.85;;
56114;SDS011;41988;53.020;6.576;2023-04-15T15:28:21;14.05;;;2.80;;
56114;SDS011;41988;53.020;6.576;2023-04-15T15:31:05;12.85;;;3.80;;
56114;SDS011;41988;53.020;6.576;2023-04-15T15:33:50;13.70;;;3.33;;
56114;SDS011;41988;53.020;6.576;2023-04-15T15:36:35;9.85;;;2.92;;
56114;SDS011;41988;53.020;6.576;2023-04-15T15:39:21;14.73;;;3.67;;
56114;SDS011;41988;53.020;6.576;2023-04-15T15:42:06;10.80;;;3.33;;
56114;SDS011;41988;53.020;6.576;2023-04-15T15:44:50;13.77;;;2.92;;
56114;SDS011;41988;53.020;6.576;2023-04-15T15:47:35;13.95;;;3.30;;
56114;SDS011;41988;53.020;6.576;2023-04-15T15:50:20;13.13;;;3.40;;
56114;SDS011;41988;53.020;6.576;2023-04-15T15:53:04;13.82;;;2.97;;
56114;SDS011;41988;53.020;6.576;2023-04-15T15:55:49;10.15;;;2.83;;
56114;SDS011;41988;53.020;6.576;2023-04-15T15:58:34;10.77;;;3.15;;
56114;SDS011;41988;53.020;6.576;2023-04-15T16:01:19;12.10;;;3.38;;
56114;SDS011;41988;53.020;6.576;2023-04-15T16:04:03;14.48;;;3.40;;
56114;SDS011;41988;53.020;6.576;2023-04-15T16:06:48;11.13;;;2.95;;
56114;SDS011;41988;53.020;6.576;2023-04-15T16:09:33;14.27;;;3.22;;
56114;SDS011;41988;53.020;6.576;2023-04-15T16:12:18;14.35;;;2.80;;
56114;SDS011;41988;53.020;6.576;2023-04-15T16:15:02;18.08;;;3.70;;
56114;SDS011;41988;53.020;6.576;2023-04-15T16:17:47;12.82;;;3.67;;
56114;SDS011;41988;53.020;6.576;2023-04-15T16:20:32;16.58;;;3.45;;
56114;SDS011;41988;53.020;6.576;2023-04-15T16:23:17;11.95;;;4.00;;
56114;SDS011;41988;53.020;6.576;2023-04-15T16:26:02;21.50;;;3.92;;
56114;SDS011;41988;53.020;6.576;2023-04-15T16:28:46;14.40;;;3.80;;
56114;SDS011;41988;53.020;6.576;2023-04-15T16:31:31;15.10;;;4.53;;
56114;SDS011;41988;53.020;6.576;2023-04-15T16:34:17;22.23;;;4.75;;
56114;SDS011;41988;53.020;6.576;2023-04-15T16:37:02;18.40;;;4.75;;